Amenabar, Argentina
Current Conditions -  °F | °C
As of 5:00 AM on Saturday 22 Nov 2014 (Local Time) from SAAR Reporting Station
Clear Clear  
Wind Chill: 54°   Ceiling: Unl
Heat Index: 54°   Visibility: 6mi
Dew Point: 54°   Wind: 3mph
Humidity: 100%   Direction: 270°W
Pressure: 29.91"   Gusts: NA
Location:  34.13°S, 62.4°W
Report Text: SAAR 220800Z 27003KT CAVOK 12/12 Q1013
Loading
Personal Weather Stations






























Interactive Weather Map New forecast layout! Learn more

10-Day Weather Forecast

Advertisements
Track Severe Weather on mobile